createdAt,value
2017-03-19T00:00:24.959Z,10.07
2017-03-19T00:01:05.435Z,10.07
2017-03-19T00:01:45.886Z,10.03
2017-03-19T00:02:26.358Z,10
2017-03-19T00:03:06.869Z,10.09
2017-03-19T00:03:47.317Z,9.99
2017-03-19T00:04:27.817Z,9.97
2017-03-19T00:05:08.306Z,10.09
2017-03-19T00:05:48.800Z,10.03
2017-03-19T00:06:29.283Z,10.09
2017-03-19T00:07:09.772Z,10.07
2017-03-19T00:07:50.256Z,9.99
2017-03-19T00:08:30.741Z,10.1
2017-03-19T00:09:11.214Z,10.01
2017-03-19T00:09:51.700Z,10.04
2017-03-19T00:10:32.184Z,10
2017-03-19T00:11:12.679Z,10.03
2017-03-19T00:11:53.164Z,10.03
2017-03-19T00:12:33.658Z,10.06
2017-03-19T00:13:14.150Z,10.04
2017-03-19T00:13:54.631Z,10.12
2017-03-19T00:14:35.131Z,10
2017-03-19T00:15:15.632Z,10.15
2017-03-19T00:15:56.119Z,10.12
2017-03-19T00:16:36.612Z,10.1
2017-03-19T00:17:17.101Z,10.14
2017-03-19T00:17:57.591Z,10.15
2017-03-19T00:18:38.084Z,10.06
2017-03-19T00:19:18.587Z,10.12
2017-03-19T00:19:59.073Z,10.1
2017-03-19T00:20:39.565Z,10.12
2017-03-19T00:21:20.062Z,10.15
2017-03-19T00:22:00.547Z,10.15
2017-03-19T00:22:41.045Z,10.03
2017-03-19T00:23:21.540Z,10.06
2017-03-19T00:24:02.028Z,9.97
2017-03-19T00:24:42.521Z,10.1
2017-03-19T00:25:23.020Z,10.01
2017-03-19T00:26:03.505Z,10.03
2017-03-19T00:26:43.999Z,9.99
2017-03-19T00:27:24.490Z,10.04
2017-03-19T00:28:04.973Z,10.12
2017-03-19T00:28:45.474Z,10.17
2017-03-19T00:29:25.969Z,10.12
2017-03-19T00:30:06.454Z,9.99
2017-03-19T00:30:46.947Z,10.15
2017-03-19T00:31:27.445Z,10
2017-03-19T00:32:07.932Z,10.03
2017-03-19T00:32:48.411Z,10.12
2017-03-19T00:33:28.903Z,10.09
2017-03-19T00:34:09.411Z,10
2017-03-19T00:34:49.906Z,10.17
2017-03-19T00:35:30.398Z,10
2017-03-19T00:36:10.879Z,10.06
2017-03-19T00:36:52.016Z,10.15
2017-03-19T00:37:32.512Z,10
2017-03-19T00:38:13.000Z,9.97
2017-03-19T00:38:53.494Z,10.07
2017-03-19T00:39:33.998Z,10.01
2017-03-19T00:40:14.494Z,10.14
2017-03-19T00:40:54.988Z,10.15
2017-03-19T00:41:35.480Z,10.14
2017-03-19T00:42:15.970Z,10.01
2017-03-19T00:42:56.468Z,10.09
2017-03-19T00:43:36.947Z,10.07
2017-03-19T00:44:17.442Z,10.01
2017-03-19T00:44:57.944Z,10
2017-03-19T00:45:38.432Z,10.07
2017-03-19T00:46:18.923Z,10.15
2017-03-19T00:46:59.418Z,10
2017-03-19T00:47:39.907Z,10.09
2017-03-19T00:48:20.406Z,10.12
2017-03-19T00:49:00.893Z,10.15
2017-03-19T00:49:41.384Z,10.04
2017-03-19T00:50:21.873Z,10.04
2017-03-19T00:51:02.377Z,10.15
2017-03-19T00:51:42.859Z,10.15
2017-03-19T00:52:23.361Z,10.01
2017-03-19T00:53:03.860Z,10.06
2017-03-19T00:53:44.340Z,10.09
2017-03-19T00:54:24.835Z,10.01
2017-03-19T00:55:05.315Z,10.07
2017-03-19T00:55:45.815Z,10.03
2017-03-19T00:56:26.304Z,10.15
2017-03-19T00:57:06.803Z,10.18
2017-03-19T00:57:47.293Z,10.06
2017-03-19T00:58:27.791Z,10.1
2017-03-19T00:59:08.278Z,10.09
2017-03-19T00:59:48.775Z,10.15
2017-03-19T01:00:29.265Z,10.15
2017-03-19T01:01:09.755Z,10.15
2017-03-19T01:01:50.246Z,10.14
2017-03-19T01:02:30.743Z,10.12
2017-03-19T01:03:11.231Z,10.15
2017-03-19T01:03:51.710Z,10.1
2017-03-19T01:04:32.202Z,10.14
2017-03-19T01:05:12.721Z,10.14
2017-03-19T01:05:53.193Z,10.1
2017-03-19T01:06:33.671Z,10.14
2017-03-19T01:07:14.161Z,10.09
2017-03-19T01:07:54.654Z,10.15
2017-03-19T01:08:35.140Z,10.1
2017-03-19T01:09:15.629Z,10.12
2017-03-19T01:09:56.131Z,10.22
2017-03-19T01:10:36.613Z,10.15
2017-03-19T01:11:17.105Z,10.21
2017-03-19T01:11:57.598Z,10.1
2017-03-19T01:12:38.090Z,10.1
2017-03-19T01:13:18.579Z,10.21
2017-03-19T01:13:59.064Z,10.14
2017-03-19T01:14:39.556Z,10.14
2017-03-19T01:15:20.039Z,10.09
2017-03-19T01:16:00.528Z,10.14
2017-03-19T01:16:41.021Z,10.12
2017-03-19T01:17:21.488Z,10.14
2017-03-19T01:18:01.982Z,10.17
2017-03-19T01:18:42.473Z,10.15
2017-03-19T01:19:22.992Z,10.06
2017-03-19T01:20:03.455Z,10.15
2017-03-19T01:20:43.938Z,10.09
2017-03-19T01:21:24.423Z,10.1
2017-03-19T01:22:04.918Z,10.15
2017-03-19T01:22:45.407Z,10.1
2017-03-19T01:23:26.775Z,10.22
2017-03-19T01:24:07.269Z,10.24
2017-03-19T01:24:47.771Z,10.25
2017-03-19T01:25:28.262Z,10.26
2017-03-19T01:26:08.764Z,10.19
2017-03-19T01:26:49.248Z,10.22
2017-03-19T01:27:29.745Z,10.21
2017-03-19T01:28:10.234Z,10.24
2017-03-19T01:28:50.725Z,10.24
2017-03-19T01:29:31.214Z,10.25
2017-03-19T01:30:11.720Z,10.19
2017-03-19T01:30:52.203Z,10.22
2017-03-19T01:31:32.698Z,10.22
2017-03-19T01:32:13.190Z,10.21
2017-03-19T01:32:53.677Z,10.25
2017-03-19T01:33:34.171Z,10.25
2017-03-19T01:34:14.680Z,10.17
2017-03-19T01:34:55.160Z,10.21
2017-03-19T01:35:35.652Z,10.33
2017-03-19T01:36:16.149Z,10.32
2017-03-19T01:36:56.649Z,10.3
2017-03-19T01:37:37.136Z,10.33
2017-03-19T01:38:17.626Z,10.33
2017-03-19T01:38:58.116Z,10.34
2017-03-19T01:39:38.607Z,10.33
2017-03-19T01:40:19.098Z,10.32
2017-03-19T01:40:59.591Z,10.33
2017-03-19T01:41:40.083Z,10.36
2017-03-19T01:42:20.574Z,10.42
2017-03-19T01:43:01.066Z,10.33
2017-03-19T01:43:41.562Z,10.26
2017-03-19T01:44:22.052Z,10.39
2017-03-19T01:45:02.543Z,10.32
2017-03-19T01:45:43.039Z,10.34
2017-03-19T01:46:23.529Z,10.37
2017-03-19T01:47:04.024Z,10.39
2017-03-19T01:47:44.514Z,10.34
2017-03-19T01:48:25.020Z,10.4
2017-03-19T01:49:05.502Z,10.42
2017-03-19T01:49:45.994Z,10.34
2017-03-19T01:50:26.496Z,10.44
2017-03-19T01:51:06.973Z,10.46
2017-03-19T01:51:47.471Z,10.47
2017-03-19T01:52:27.960Z,10.39
2017-03-19T01:53:08.451Z,10.44
2017-03-19T01:53:48.942Z,10.44
2017-03-19T01:54:29.444Z,10.43
2017-03-19T01:55:09.930Z,10.43
2017-03-19T01:55:50.418Z,10.44
2017-03-19T01:56:30.918Z,10.44
2017-03-19T01:57:11.406Z,10.46
2017-03-19T01:57:51.901Z,10.47
2017-03-19T01:58:32.403Z,10.44
2017-03-19T01:59:12.843Z,10.47
2017-03-19T01:59:53.340Z,10.43
2017-03-19T02:00:33.837Z,10.52
2017-03-19T02:01:14.343Z,10.52
2017-03-19T02:01:54.820Z,10.4
2017-03-19T02:02:35.315Z,10.46
2017-03-19T02:03:15.790Z,10.4
2017-03-19T02:03:56.275Z,10.47
2017-03-19T02:04:36.748Z,10.46
2017-03-19T02:05:17.179Z,10.52
2017-03-19T02:05:57.632Z,10.46
2017-03-19T02:07:55.216Z,10.44
2017-03-19T02:08:35.710Z,10.43
2017-03-19T02:09:16.205Z,10.46
2017-03-19T02:09:56.699Z,10.51
2017-03-19T02:10:37.191Z,10.46
2017-03-19T02:11:17.684Z,10.52
2017-03-19T02:11:59.018Z,10.51
2017-03-19T02:12:39.497Z,10.59
2017-03-19T02:13:19.976Z,10.52
2017-03-19T02:14:00.473Z,10.55
2017-03-19T02:14:40.960Z,10.52
2017-03-19T02:15:21.443Z,10.59
2017-03-19T02:16:01.937Z,10.58
2017-03-19T02:16:42.440Z,10.56
2017-03-19T02:17:22.935Z,10.59
2017-03-19T02:18:03.427Z,10.6
2017-03-19T02:18:43.916Z,10.58
2017-03-19T02:19:24.384Z,10.6
2017-03-19T02:20:04.839Z,10.59
2017-03-19T02:20:45.323Z,10.65
2017-03-19T02:21:25.821Z,10.62
2017-03-19T02:22:06.290Z,10.62
2017-03-19T02:22:46.754Z,10.63
2017-03-19T02:23:27.236Z,10.66
2017-03-19T02:24:07.686Z,10.59
2017-03-19T02:26:20.365Z,10.59
2017-03-19T02:27:00.869Z,10.56
2017-03-19T02:27:41.348Z,10.62
2017-03-19T02:28:21.841Z,10.68
2017-03-19T02:29:02.302Z,10.7
2017-03-19T02:29:42.805Z,10.63
2017-03-19T02:30:23.282Z,10.71
2017-03-19T02:31:03.776Z,10.65
2017-03-19T02:31:44.274Z,10.66
2017-03-19T02:32:24.759Z,10.7
2017-03-19T02:33:05.252Z,10.65
2017-03-19T02:33:45.745Z,10.73
2017-03-19T02:34:26.218Z,10.66
2017-03-19T02:35:06.706Z,10.63
2017-03-19T02:35:47.185Z,10.74
2017-03-19T02:36:27.709Z,10.7
2017-03-19T02:37:08.162Z,10.74
2017-03-19T02:37:48.651Z,10.73
2017-03-19T02:38:29.139Z,10.68
2017-03-19T02:39:09.652Z,10.8
2017-03-19T02:39:50.123Z,10.73
2017-03-19T02:40:30.599Z,10.77
2017-03-19T02:41:11.091Z,10.68
2017-03-19T02:41:51.581Z,10.71
2017-03-19T02:42:32.072Z,10.71
2017-03-19T02:43:12.574Z,10.8
2017-03-19T02:43:53.061Z,10.73
2017-03-19T02:44:33.554Z,10.68
2017-03-19T02:45:14.053Z,10.74
2017-03-19T02:45:54.527Z,10.7
2017-03-19T02:46:35.027Z,10.71
2017-03-19T02:47:15.490Z,10.77
2017-03-19T02:47:55.986Z,10.77
2017-03-19T02:48:36.470Z,10.78
2017-03-19T02:49:16.965Z,10.8
2017-03-19T02:49:57.463Z,10.8
2017-03-19T02:50:37.944Z,10.88
2017-03-19T02:51:18.428Z,10.91
2017-03-19T02:51:58.917Z,10.98
2017-03-19T02:52:39.428Z,10.91
2017-03-19T02:53:19.921Z,10.89
2017-03-19T02:54:00.411Z,10.94
2017-03-19T02:54:40.912Z,10.86
2017-03-19T02:55:21.399Z,10.89
2017-03-19T02:56:01.896Z,10.88
2017-03-19T02:56:42.380Z,10.89
2017-03-19T02:57:22.879Z,10.95
2017-03-19T02:58:03.375Z,10.94
2017-03-19T02:58:43.860Z,10.98
2017-03-19T02:59:24.350Z,11.03
2017-03-19T03:00:04.796Z,11.02
2017-03-19T03:00:45.293Z,10.98
2017-03-19T03:01:25.788Z,10.89
2017-03-19T03:02:06.287Z,10.91
2017-03-19T03:02:46.780Z,10.96
2017-03-19T03:03:27.266Z,10.96
2017-03-19T03:04:07.764Z,10.96
2017-03-19T03:04:48.250Z,10.83
2017-03-19T03:05:28.742Z,10.94
2017-03-19T03:06:09.243Z,10.91
2017-03-19T03:06:49.741Z,10.91
2017-03-19T03:07:30.219Z,10.89
2017-03-19T03:08:10.720Z,10.89
2017-03-19T03:08:51.217Z,10.84
2017-03-19T03:09:31.702Z,10.89
2017-03-19T03:10:12.196Z,10.89
2017-03-19T03:10:52.691Z,10.89
2017-03-19T03:11:33.170Z,10.86
2017-03-19T03:12:13.669Z,10.86
2017-03-19T03:12:54.168Z,10.91
2017-03-19T03:13:34.657Z,10.88
2017-03-19T03:14:15.149Z,10.92
2017-03-19T03:14:55.646Z,10.92
2017-03-19T03:15:36.134Z,10.96
2017-03-19T03:16:16.629Z,10.92
2017-03-19T03:16:57.123Z,10.89
2017-03-19T03:17:37.614Z,10.92
2017-03-19T03:18:18.105Z,10.89
2017-03-19T03:18:58.586Z,10.91
2017-03-19T03:19:39.079Z,10.86
2017-03-19T03:20:19.580Z,10.86
2017-03-19T03:21:00.078Z,10.88
2017-03-19T03:21:40.565Z,10.91
2017-03-19T03:22:21.061Z,10.99
2017-03-19T03:23:01.558Z,10.96
2017-03-19T03:23:42.044Z,10.89
2017-03-19T03:24:22.535Z,10.89
2017-03-19T03:25:03.013Z,10.95
2017-03-19T03:25:43.507Z,11.01
2017-03-19T03:26:23.996Z,10.88
2017-03-19T03:27:05.063Z,10.95
2017-03-19T03:27:45.550Z,11.01
2017-03-19T03:28:26.052Z,10.89
2017-03-19T03:29:06.522Z,10.99
2017-03-19T03:29:47.002Z,11.01
2017-03-19T03:30:27.485Z,10.96
2017-03-19T03:31:07.933Z,11.02
2017-03-19T03:32:45.283Z,10.94
2017-03-19T03:33:25.765Z,11.02
2017-03-19T03:34:06.256Z,10.96
2017-03-19T03:34:46.761Z,10.96
2017-03-19T03:35:27.248Z,10.95
2017-03-19T03:36:07.738Z,10.99
2017-03-19T03:36:48.228Z,10.96
2017-03-19T03:37:28.719Z,10.86
2017-03-19T03:38:09.197Z,10.91
2017-03-19T03:38:49.690Z,10.96
2017-03-19T03:39:30.171Z,10.98
2017-03-19T03:40:10.670Z,10.94
2017-03-19T03:40:51.166Z,10.92
2017-03-19T03:41:31.659Z,10.95
2017-03-19T03:42:12.148Z,10.96
2017-03-19T03:42:52.637Z,10.96
2017-03-19T03:43:33.128Z,10.92
2017-03-19T03:44:13.614Z,10.96
2017-03-19T03:44:54.098Z,10.98
2017-03-19T03:45:34.587Z,11.02
2017-03-19T03:46:15.057Z,11.03
2017-03-19T03:46:55.548Z,10.98
2017-03-19T03:47:36.042Z,11.02
2017-03-19T03:48:16.534Z,11.03
2017-03-19T03:48:57.018Z,11.02
2017-03-19T03:49:37.503Z,10.92
2017-03-19T03:50:17.980Z,10.99
2017-03-19T03:50:58.474Z,11.07
2017-03-19T03:51:38.948Z,11.06
2017-03-19T03:52:19.436Z,11.1
2017-03-19T03:52:59.913Z,11.07
2017-03-19T03:53:40.403Z,11.1
2017-03-19T03:54:20.893Z,11.09
2017-03-19T03:55:01.390Z,11.17
2017-03-19T03:55:41.836Z,11.16
2017-03-19T03:56:22.305Z,11.17
2017-03-19T03:57:03.462Z,11.16
2017-03-19T03:57:43.936Z,11.14
2017-03-19T03:58:24.434Z,11.13
2017-03-19T03:59:04.926Z,11.06
2017-03-19T03:59:45.420Z,11.06
2017-03-19T04:00:25.896Z,11.11
2017-03-19T04:01:06.399Z,11.16
2017-03-19T04:01:46.890Z,11.19
2017-03-19T04:02:27.406Z,11.19
2017-03-19T04:03:07.874Z,11.2
2017-03-19T04:03:48.372Z,11.14
2017-03-19T04:04:28.863Z,11.14
2017-03-19T04:05:09.350Z,11.06
2017-03-19T04:05:49.850Z,11.11
2017-03-19T04:06:30.352Z,11.06
2017-03-19T04:07:10.831Z,11.02
2017-03-19T04:07:51.323Z,11.13
2017-03-19T04:08:31.824Z,11.01
2017-03-19T04:09:12.299Z,11.07
2017-03-19T04:09:52.795Z,11.09
2017-03-19T04:10:33.274Z,11.07
2017-03-19T04:11:13.782Z,11.06
2017-03-19T04:11:54.272Z,11.06
2017-03-19T04:12:34.713Z,11.03
2017-03-19T04:13:15.162Z,11.02
2017-03-19T04:14:52.493Z,11.03
2017-03-19T04:15:32.980Z,11.06
2017-03-19T04:16:13.471Z,11.03
2017-03-19T04:16:53.949Z,11.03
2017-03-19T04:17:34.441Z,11.01
2017-03-19T04:18:14.940Z,10.96
2017-03-19T04:18:55.417Z,10.96
2017-03-19T04:19:35.893Z,10.96
2017-03-19T04:20:16.387Z,10.98
2017-03-19T04:20:56.898Z,11.01
2017-03-19T04:21:37.352Z,10.95
2017-03-19T04:22:17.830Z,11.07
2017-03-19T04:22:58.305Z,10.99
2017-03-19T04:23:38.782Z,10.98
2017-03-19T04:24:19.278Z,11.02
2017-03-19T04:25:00.474Z,10.99
2017-03-19T04:25:40.960Z,11.01
2017-03-19T04:26:21.457Z,10.96
2017-03-19T04:27:01.939Z,10.99
2017-03-19T04:27:42.434Z,10.98
2017-03-19T04:28:22.923Z,11.01
2017-03-19T04:29:03.410Z,10.94
2017-03-19T04:29:43.889Z,10.92
2017-03-19T04:30:24.370Z,10.98
2017-03-19T04:31:04.863Z,10.98
2017-03-19T04:31:45.350Z,10.99
2017-03-19T04:32:25.813Z,10.96
2017-03-19T04:33:06.272Z,10.92
2017-03-19T04:33:46.738Z,10.92
2017-03-19T04:34:27.232Z,10.95
2017-03-19T04:35:07.715Z,10.99
2017-03-19T04:35:48.204Z,11.02
2017-03-19T04:36:28.697Z,10.96
2017-03-19T04:37:09.193Z,10.99
2017-03-19T04:37:49.676Z,10.94
2017-03-19T04:38:30.173Z,10.96
2017-03-19T04:39:10.675Z,10.96
2017-03-19T04:39:51.151Z,10.96
2017-03-19T04:40:31.648Z,10.92
2017-03-19T04:42:19.105Z,10.95
2017-03-19T04:42:59.597Z,10.96
2017-03-19T04:43:40.076Z,10.92
2017-03-19T04:44:20.594Z,10.95
2017-03-19T04:45:01.083Z,10.96
2017-03-19T04:45:41.563Z,10.91
2017-03-19T04:46:22.045Z,10.96
2017-03-19T04:47:02.535Z,10.92
2017-03-19T04:47:43.031Z,10.92
2017-03-19T04:48:23.529Z,10.96
2017-03-19T04:49:04.038Z,10.95
2017-03-19T04:49:44.511Z,10.95
2017-03-19T04:50:24.988Z,10.86
2017-03-19T04:51:05.483Z,10.94
2017-03-19T04:51:45.983Z,10.89
2017-03-19T04:52:26.454Z,10.92
2017-03-19T04:53:06.940Z,10.96
2017-03-19T04:53:47.445Z,10.94
2017-03-19T04:54:27.912Z,10.96
2017-03-19T04:55:08.399Z,10.98
2017-03-19T04:55:48.870Z,10.88
2017-03-19T04:56:29.373Z,10.92
2017-03-19T04:57:09.855Z,10.95
2017-03-19T04:57:50.352Z,10.95
2017-03-19T04:58:30.850Z,10.98
2017-03-19T04:59:11.336Z,10.96
2017-03-19T04:59:51.815Z,10.98
2017-03-19T05:00:32.313Z,10.98
2017-03-19T05:01:12.809Z,10.89
2017-03-19T05:01:53.309Z,10.96
2017-03-19T05:02:33.798Z,10.95
2017-03-19T05:03:14.290Z,10.98
2017-03-19T05:03:54.785Z,10.96
2017-03-19T05:04:35.271Z,10.94
2017-03-19T05:05:15.766Z,10.98
2017-03-19T05:05:56.260Z,10.98
2017-03-19T05:06:36.753Z,11.01
2017-03-19T05:07:17.229Z,10.94
2017-03-19T05:07:57.691Z,10.96
2017-03-19T05:10:10.375Z,11.01
2017-03-19T05:10:50.868Z,10.94
2017-03-19T05:11:31.355Z,10.96
2017-03-19T05:12:11.809Z,11.03
2017-03-19T05:12:52.288Z,11.01
2017-03-19T05:13:32.777Z,10.99
2017-03-19T05:14:13.272Z,11.01
2017-03-19T05:14:53.754Z,11.06
2017-03-19T05:15:34.251Z,11.02
2017-03-19T05:16:14.742Z,10.99
2017-03-19T05:16:55.222Z,10.88
2017-03-19T05:19:07.914Z,11.02
2017-03-19T05:19:48.368Z,10.96
2017-03-19T05:20:28.860Z,11.06
2017-03-19T05:21:09.351Z,11.01
2017-03-19T05:21:49.841Z,11.07
2017-03-19T05:22:30.338Z,10.98
2017-03-19T05:23:10.821Z,10.98
2017-03-19T05:23:51.301Z,11.03
2017-03-19T05:24:31.790Z,11.02
2017-03-19T05:25:12.304Z,11.03
2017-03-19T05:25:52.800Z,11.01
2017-03-19T05:26:33.272Z,11.03
2017-03-19T05:27:13.761Z,10.99
2017-03-19T05:27:54.247Z,11.03
2017-03-19T05:28:34.731Z,11.09
2017-03-19T05:29:15.210Z,11.02
2017-03-19T05:29:55.691Z,11.07
2017-03-19T05:30:36.171Z,11.03
2017-03-19T05:31:16.670Z,11.07
2017-03-19T05:31:57.112Z,11.06
2017-03-19T05:33:34.462Z,11.06
2017-03-19T05:34:14.924Z,11.1
2017-03-19T05:34:55.415Z,11.14
2017-03-19T05:35:35.897Z,11.1
2017-03-19T05:36:16.382Z,11.09
2017-03-19T05:36:56.875Z,11.13
2017-03-19T05:37:37.349Z,11.1
2017-03-19T05:38:17.830Z,11.14
2017-03-19T05:38:58.302Z,11.14
2017-03-19T05:39:38.810Z,11.19
2017-03-19T05:40:19.280Z,11.14
2017-03-19T05:40:59.759Z,11.2
2017-03-19T05:41:40.238Z,11.13
2017-03-19T05:42:20.737Z,11.14
2017-03-19T05:43:01.216Z,11.17
2017-03-19T05:43:41.699Z,11.13
2017-03-19T05:44:22.186Z,11.17
2017-03-19T05:45:02.675Z,11.21
2017-03-19T05:45:43.162Z,11.16
2017-03-19T05:46:23.647Z,11.17
2017-03-19T05:47:04.137Z,11.19
2017-03-19T05:47:44.622Z,11.16
2017-03-19T05:48:25.113Z,11.19
2017-03-19T05:49:05.584Z,11.16
2017-03-19T05:49:46.084Z,11.16
2017-03-19T05:50:26.571Z,11.19
2017-03-19T05:51:07.064Z,11.2
2017-03-19T05:51:47.567Z,11.11
2017-03-19T05:52:28.054Z,11.17
2017-03-19T05:53:08.541Z,11.13
2017-03-19T05:53:49.034Z,11.13
2017-03-19T05:54:29.525Z,11.14
2017-03-19T05:55:10.017Z,11.11
2017-03-19T05:55:50.517Z,11.11
2017-03-19T05:56:31.002Z,11.09
2017-03-19T05:57:11.495Z,11.14
2017-03-19T05:57:51.994Z,11.11
2017-03-19T05:58:32.484Z,11.17
2017-03-19T05:59:12.973Z,11.13
2017-03-19T05:59:53.468Z,11.07
2017-03-19T06:00:33.948Z,11.11
2017-03-19T06:01:14.427Z,11.16
2017-03-19T06:01:54.920Z,11.1
2017-03-19T06:02:35.415Z,11.09
2017-03-19T06:03:15.897Z,11.03
2017-03-19T06:03:56.381Z,11.02
2017-03-19T06:04:36.867Z,10.99
2017-03-19T06:05:17.356Z,11.02
2017-03-19T06:05:57.848Z,10.99
2017-03-19T06:06:38.323Z,11.02
2017-03-19T06:07:18.815Z,11.02
2017-03-19T06:07:59.301Z,11.06
2017-03-19T06:08:39.794Z,10.98
2017-03-19T06:09:20.290Z,11.01
2017-03-19T06:10:00.781Z,10.94
2017-03-19T06:10:41.258Z,11.01
2017-03-19T06:11:21.744Z,10.95
2017-03-19T06:12:02.238Z,10.92
2017-03-19T06:12:42.691Z,10.96
2017-03-19T06:13:23.162Z,10.92
2017-03-19T06:14:03.616Z,10.92
2017-03-19T06:14:44.101Z,10.96
2017-03-19T06:15:24.595Z,10.95
2017-03-19T06:16:05.083Z,10.86
2017-03-19T06:16:45.563Z,10.84
2017-03-19T06:17:26.064Z,10.95
2017-03-19T06:18:06.554Z,10.94
2017-03-19T06:18:47.038Z,10.89
2017-03-19T06:19:27.521Z,10.86
2017-03-19T06:20:08.019Z,10.84
2017-03-19T06:20:48.520Z,10.89
2017-03-19T06:21:29.016Z,10.89
2017-03-19T06:22:09.508Z,10.92
2017-03-19T06:22:49.989Z,10.8
2017-03-19T06:23:30.494Z,10.84
2017-03-19T06:24:10.990Z,10.88
2017-03-19T06:24:51.477Z,10.83
2017-03-19T06:25:31.964Z,10.84
2017-03-19T06:26:12.443Z,10.78
2017-03-19T06:26:52.949Z,10.83
2017-03-19T06:27:33.429Z,10.77
2017-03-19T06:28:13.919Z,10.84
2017-03-19T06:28:54.431Z,10.78
2017-03-19T06:29:34.922Z,10.8
2017-03-19T06:30:15.418Z,10.81
2017-03-19T06:30:55.913Z,10.77
2017-03-19T06:31:36.397Z,10.84
2017-03-19T06:32:16.898Z,10.78
2017-03-19T06:32:57.386Z,10.88
2017-03-19T06:33:37.878Z,10.89
2017-03-19T06:34:18.363Z,10.76
2017-03-19T06:34:58.859Z,10.78
2017-03-19T06:35:39.357Z,10.86
2017-03-19T06:36:19.852Z,10.83
2017-03-19T06:37:00.339Z,10.89
2017-03-19T06:37:40.837Z,10.86
2017-03-19T06:38:21.324Z,10.91
2017-03-19T06:39:01.815Z,10.89
2017-03-19T06:39:42.294Z,10.84
2017-03-19T06:40:22.775Z,10.94
2017-03-19T06:41:03.215Z,10.86
2017-03-19T06:42:55.761Z,10.89
2017-03-19T06:43:36.252Z,10.92
2017-03-19T06:44:16.729Z,10.89
2017-03-19T06:44:57.223Z,10.96
2017-03-19T06:45:37.715Z,10.86
2017-03-19T06:46:18.231Z,10.91
2017-03-19T06:46:58.664Z,10.89
2017-03-19T06:47:39.155Z,10.86
2017-03-19T06:48:19.634Z,10.96
2017-03-19T06:49:00.119Z,10.96
2017-03-19T06:49:40.590Z,10.96
2017-03-19T06:50:21.078Z,11.03
2017-03-19T06:51:01.560Z,10.99
2017-03-19T06:51:42.057Z,11.07
2017-03-19T06:52:22.550Z,11.07
2017-03-19T06:53:03.653Z,11.06
2017-03-19T06:53:44.127Z,11.06
2017-03-19T06:54:25.231Z,11.03
2017-03-19T06:56:17.782Z,11.03
2017-03-19T06:56:58.229Z,11.07
2017-03-19T06:57:38.688Z,11.13
2017-03-19T06:58:19.178Z,11.07
2017-03-19T06:58:59.703Z,11.07
2017-03-19T06:59:40.189Z,11.03
2017-03-19T07:00:20.675Z,11.06
2017-03-19T07:01:01.163Z,11.07
2017-03-19T07:01:41.655Z,11.02
2017-03-19T07:02:22.120Z,11.06
2017-03-19T07:03:02.600Z,11.03
2017-03-19T07:03:43.089Z,11.1
2017-03-19T07:04:23.578Z,11.06
2017-03-19T07:05:04.070Z,11.17
2017-03-19T07:05:44.577Z,11.13
2017-03-19T07:06:25.069Z,11.19
2017-03-19T07:07:05.561Z,11.14
2017-03-19T07:07:46.050Z,11.14
2017-03-19T07:08:26.542Z,11.2
2017-03-19T07:09:07.039Z,11.28
2017-03-19T07:09:47.529Z,11.24
2017-03-19T07:10:28.025Z,11.34
2017-03-19T07:11:08.510Z,11.24
2017-03-19T07:11:48.994Z,11.29
2017-03-19T07:12:29.472Z,11.19
2017-03-19T07:13:09.959Z,11.28
2017-03-19T07:13:50.457Z,11.27
2017-03-19T07:14:30.942Z,11.25
2017-03-19T07:15:11.438Z,11.29
2017-03-19T07:15:51.914Z,11.35
2017-03-19T07:16:32.395Z,11.41
2017-03-19T07:17:12.817Z,11.36
2017-03-19T07:17:53.270Z,11.39
2017-03-19T07:18:33.749Z,11.36
2017-03-19T07:19:14.233Z,11.38
2017-03-19T07:19:54.669Z,11.35
2017-03-19T07:20:35.135Z,11.36
2017-03-19T07:21:15.624Z,11.43
2017-03-19T07:21:56.121Z,11.46
2017-03-19T07:22:36.620Z,11.39
2017-03-19T07:23:17.102Z,11.36
2017-03-19T07:23:57.601Z,11.32
2017-03-19T07:24:38.103Z,11.43
2017-03-19T07:25:18.584Z,11.43
2017-03-19T07:25:59.071Z,11.35
2017-03-19T07:26:39.550Z,11.36
2017-03-19T07:27:20.038Z,11.38
2017-03-19T07:28:00.539Z,11.38
2017-03-19T07:28:41.026Z,11.36
2017-03-19T07:29:21.513Z,11.39
2017-03-19T07:30:02.010Z,11.39
2017-03-19T07:30:42.506Z,11.34
2017-03-19T07:31:23.001Z,11.44
2017-03-19T07:32:03.487Z,11.46
2017-03-19T07:32:43.972Z,11.39
2017-03-19T07:33:24.463Z,11.38
2017-03-19T07:34:04.948Z,11.35
2017-03-19T07:34:45.438Z,11.47
2017-03-19T07:35:25.925Z,11.47
2017-03-19T07:36:06.410Z,11.46
2017-03-19T07:36:46.900Z,11.41
2017-03-19T07:37:27.398Z,11.41
2017-03-19T07:38:07.898Z,11.44
2017-03-19T07:38:48.394Z,11.46
2017-03-19T07:39:28.895Z,11.44
2017-03-19T07:40:09.353Z,11.5
2017-03-19T07:40:49.840Z,11.54
2017-03-19T07:41:30.331Z,11.54
2017-03-19T07:42:10.831Z,11.47
2017-03-19T07:42:51.320Z,11.5
2017-03-19T07:43:31.811Z,11.53
2017-03-19T07:44:12.289Z,11.57
2017-03-19T07:44:52.789Z,11.67
2017-03-19T07:45:33.276Z,11.54
2017-03-19T07:46:13.766Z,11.53
2017-03-19T07:46:54.268Z,11.53
2017-03-19T07:47:34.764Z,11.53
2017-03-19T07:48:15.260Z,11.53
2017-03-19T07:48:55.749Z,11.54
2017-03-19T07:49:36.247Z,11.5
2017-03-19T07:50:16.736Z,11.61
2017-03-19T07:50:57.221Z,11.71
2017-03-19T07:51:37.716Z,11.53
2017-03-19T07:52:18.206Z,11.65
2017-03-19T07:52:58.700Z,11.59
2017-03-19T07:53:39.233Z,11.65
2017-03-19T07:54:19.717Z,11.67
2017-03-19T07:55:00.207Z,11.71
2017-03-19T07:55:40.705Z,11.62
2017-03-19T07:56:21.754Z,11.7
2017-03-19T07:57:02.242Z,11.68
2017-03-19T07:57:42.726Z,11.67
2017-03-19T07:58:23.221Z,11.61
2017-03-19T07:59:03.709Z,11.64
2017-03-19T07:59:44.192Z,11.61
2017-03-19T08:00:24.680Z,11.7
2017-03-19T08:01:05.176Z,11.72
2017-03-19T08:01:45.678Z,11.7
2017-03-19T08:02:26.192Z,11.7
2017-03-19T08:03:06.698Z,11.71
2017-03-19T08:03:47.195Z,11.7
2017-03-19T08:04:27.690Z,11.74
2017-03-19T08:05:08.162Z,11.71
2017-03-19T08:05:48.650Z,11.71
2017-03-19T08:06:30.078Z,11.72
2017-03-19T08:07:10.565Z,11.78
2017-03-19T08:07:51.062Z,11.72
2017-03-19T08:08:31.554Z,11.7
2017-03-19T08:09:12.053Z,11.74
2017-03-19T08:09:52.541Z,11.72
2017-03-19T08:10:33.020Z,11.72
2017-03-19T08:11:13.512Z,11.74
2017-03-19T08:11:53.993Z,11.83
2017-03-19T08:12:34.482Z,11.71
2017-03-19T08:13:14.939Z,11.9
2017-03-19T08:13:55.436Z,11.83
2017-03-19T08:14:35.925Z,11.86
2017-03-19T08:15:16.416Z,11.74
2017-03-19T08:15:56.910Z,11.83
2017-03-19T08:16:37.399Z,11.83
2017-03-19T08:17:17.852Z,11.77
2017-03-19T08:17:58.336Z,11.94
2017-03-19T08:18:38.825Z,11.83
2017-03-19T08:19:19.310Z,11.87
2017-03-19T08:19:59.789Z,11.93
2017-03-19T08:20:40.267Z,11.82
2017-03-19T08:21:20.751Z,11.89
2017-03-19T08:22:01.202Z,11.85
2017-03-19T08:22:41.680Z,11.8
2017-03-19T08:23:22.170Z,11.93
2017-03-19T08:24:02.664Z,11.87
2017-03-19T08:24:43.142Z,11.86
2017-03-19T08:25:23.632Z,11.9
2017-03-19T08:26:04.110Z,11.9
2017-03-19T08:26:44.594Z,11.97
2017-03-19T08:27:25.076Z,12.04
2017-03-19T08:28:05.571Z,12.04
2017-03-19T08:28:46.053Z,12.06
2017-03-19T08:29:26.532Z,12.05
2017-03-19T08:30:07.015Z,12.06
2017-03-19T08:31:54.466Z,12.09
2017-03-19T08:32:34.987Z,12.12
2017-03-19T08:33:15.417Z,12.06
2017-03-19T08:33:55.897Z,12.04
2017-03-19T08:34:36.407Z,12.04
2017-03-19T08:35:16.920Z,12.04
2017-03-19T08:35:57.946Z,12.04
2017-03-19T08:36:38.444Z,12.05
2017-03-19T08:37:18.942Z,12.05
2017-03-19T08:37:59.437Z,12.04
2017-03-19T08:38:39.925Z,12.05
2017-03-19T08:39:20.416Z,11.97
2017-03-19T08:40:00.904Z,12.01
2017-03-19T08:40:41.455Z,12.05
2017-03-19T08:41:21.875Z,12.05
2017-03-19T08:42:02.369Z,12.05
2017-03-19T08:42:42.878Z,12.04
2017-03-19T08:43:23.373Z,12.06
2017-03-19T08:44:03.877Z,12.05
2017-03-19T08:44:44.341Z,12.12
2017-03-19T08:45:24.817Z,12.04
2017-03-19T08:46:05.303Z,12.06
2017-03-19T08:46:45.787Z,12.04
2017-03-19T08:47:26.274Z,12.02
2017-03-19T08:48:06.771Z,12.04
2017-03-19T08:48:47.243Z,12.04
2017-03-19T08:49:27.740Z,12.06
2017-03-19T08:50:08.226Z,12.09
2017-03-19T08:50:48.719Z,12.09
2017-03-19T08:51:29.212Z,12.05
2017-03-19T08:52:09.691Z,12.05
2017-03-19T08:52:50.197Z,12.13
2017-03-19T08:53:30.697Z,12.05
2017-03-19T08:54:11.180Z,12.05
2017-03-19T08:54:51.671Z,12.04
2017-03-19T08:55:32.170Z,12.13
2017-03-19T08:56:12.661Z,12.09
2017-03-19T08:56:53.147Z,12.06